Time;durP1;ratioP1;P1;durP2;ratioP2;P2;SDS_P1;SDS_P2;PMS_P1;PMS_P2;Temp;Humidity;BMP_temperature;BMP_pressure;BME280_temperature;BME280_humidity;BME280_pressure;Samples;Min_cycle;Max_cycle;Signal;HPM_P1;HPM_P2
2022/09/17 00:00:40;;;;;;;10.07;1.65;;;10.40;99.90;;;;;;5050968;28;20044;-73
2022/09/17 00:03:08;;;;;;;20.08;2.67;;;10.40;99.90;;;;;;5050945;28;20404;-75
2022/09/17 00:05:38;;;;;;;17.15;3.13;;;10.40;99.90;;;;;;5050464;28;20060;-74
2022/09/17 00:08:10;;;;;;;17.25;2.50;;;10.50;99.90;;;;;;5049455;28;20056;-75
2022/09/17 00:10:39;;;;;;;18.65;2.40;;;10.50;99.90;;;;;;5048822;28;20049;-73
2022/09/17 00:13:06;;;;;;;14.73;2.28;;;10.60;99.90;;;;;;5050838;28;20037;-76
2022/09/17 00:15:32;;;;;;;11.27;1.90;;;10.60;99.90;;;;;;5049469;28;20056;-75
2022/09/17 00:17:58;;;;;;;21.02;2.35;;;10.60;99.90;;;;;;5048968;28;20507;-74
2022/09/17 00:20:25;;;;;;;21.08;2.85;;;10.60;99.90;;;;;;5050163;28;20059;-74
2022/09/17 00:22:51;;;;;;;15.25;2.05;;;10.70;99.90;;;;;;5050279;28;20492;-73
2022/09/17 00:25:17;;;;;;;15.68;2.22;;;10.60;99.90;;;;;;5050273;28;20049;-73
2022/09/17 00:27:42;;;;;;;15.98;2.05;;;10.60;99.90;;;;;;5044829;28;20049;-72
2022/09/17 00:30:10;;;;;;;14.38;2.25;;;10.50;99.90;;;;;;5029892;28;20437;-73
2022/09/17 00:32:36;;;;;;;16.00;2.03;;;10.50;99.90;;;;;;5030319;28;20053;-72
2022/09/17 00:35:02;;;;;;;15.50;2.10;;;10.60;99.90;;;;;;5030438;28;20137;-74
2022/09/17 00:37:27;;;;;;;12.60;2.13;;;10.40;99.90;;;;;;5030001;28;20242;-76
2022/09/17 00:39:53;;;;;;;15.30;2.20;;;10.40;99.90;;;;;;5030767;28;20552;-73
2022/09/17 00:42:19;;;;;;;13.57;1.45;;;10.30;99.90;;;;;;5038528;28;20060;-73
2022/09/17 00:44:49;;;;;;;15.50;1.83;;;10.70;99.90;;;;;;5050355;28;20077;-78
2022/09/17 00:47:38;;;;;;;14.38;2.00;;;10.30;99.90;;;;;;5050250;28;20040;-77
2022/09/17 00:50:09;;;;;;;13.80;1.90;;;10.20;99.90;;;;;;5048125;28;20531;-72
2022/09/17 00:52:57;;;;;;;13.60;1.92;;;10.10;99.90;;;;;;5049468;28;20037;-72
2022/09/17 00:55:42;;;;;;;11.75;1.63;;;10.10;99.90;;;;;;5049967;28;20407;-74
2022/09/17 00:58:11;;;;;;;14.23;1.77;;;10.00;99.90;;;;;;5050040;28;20049;-77
2022/09/17 01:00:37;;;;;;;17.35;1.98;;;9.90;99.90;;;;;;5046810;28;20098;-75
2022/09/17 01:03:03;;;;;;;16.52;1.85;;;9.90;99.90;;;;;;5049781;28;20480;-77
2022/09/17 01:05:49;;;;;;;10.23;1.70;;;9.80;99.90;;;;;;5049765;28;20044;-73
2022/09/17 01:08:26;;;;;;;12.63;2.33;;;9.70;99.90;;;;;;5049647;28;20041;-74
2022/09/17 01:11:07;;;;;;;16.45;2.13;;;9.60;99.90;;;;;;5048084;28;20392;-74
2022/09/17 01:14:02;;;;;;;12.68;1.92;;;9.60;99.90;;;;;;5049863;28;20041;-75
2022/09/17 01:16:36;;;;;;;24.02;3.17;;;9.60;99.90;;;;;;5048877;28;20061;-72
2022/09/17 01:19:02;;;;;;;15.23;1.77;;;9.60;99.90;;;;;;5050022;28;20057;-72
2022/09/17 01:21:54;;;;;;;15.25;2.20;;;9.70;99.90;;;;;;5047840;28;20063;-77
2022/09/17 01:24:57;;;;;;;21.15;2.35;;;9.50;99.90;;;;;;5048010;28;20052;-74
2022/09/17 01:27:38;;;;;;;14.75;2.42;;;9.40;99.90;;;;;;5049881;28;20389;-73
2022/09/17 01:30:24;;;;;;;18.45;2.30;;;9.40;99.90;;;;;;5048276;28;20060;-75
2022/09/17 01:33:04;;;;;;;16.65;2.22;;;9.40;99.90;;;;;;5049499;28;20116;-74
2022/09/17 01:35:57;;;;;;;16.75;2.15;;;9.30;99.90;;;;;;5049282;28;20045;-75
2022/09/17 01:38:38;;;;;;;22.88;3.13;;;9.30;99.90;;;;;;5049210;28;20056;-74
2022/09/17 01:41:14;;;;;;;17.42;2.42;;;9.30;99.90;;;;;;5047681;28;20049;-74
2022/09/17 01:43:55;;;;;;;20.10;2.78;;;9.30;99.90;;;;;;5053220;28;20052;-74
2022/09/17 01:46:29;;;;;;;19.75;2.63;;;9.30;99.90;;;;;;5053483;28;20042;-74
2022/09/17 01:48:58;;;;;;;20.35;2.30;;;9.30;99.90;;;;;;5053638;28;20198;-76
2022/09/17 01:51:27;;;;;;;18.40;2.25;;;9.30;99.90;;;;;;5051720;28;20036;-72
2022/09/17 01:54:03;;;;;;;16.48;2.45;;;9.30;99.90;;;;;;5053399;28;20040;-74
2022/09/17 01:56:45;;;;;;;18.45;2.30;;;9.40;99.90;;;;;;5053471;28;20049;-73
2022/09/17 01:59:35;;;;;;;23.42;2.35;;;9.50;99.90;;;;;;5053355;28;20056;-74
2022/09/17 02:02:09;;;;;;;20.30;2.42;;;9.40;99.90;;;;;;5037015;28;20110;-73
2022/09/17 02:04:42;;;;;;;15.52;1.98;;;9.50;99.90;;;;;;5032953;28;20911;-73
2022/09/17 02:07:15;;;;;;;14.30;2.58;;;9.50;99.90;;;;;;5033079;28;20737;-73
2022/09/17 02:09:52;;;;;;;15.25;3.10;;;9.50;99.90;;;;;;5032771;28;20091;-75
2022/09/17 02:12:23;;;;;;;16.27;1.92;;;9.50;99.90;;;;;;5036884;28;20407;-76
2022/09/17 02:14:55;;;;;;;15.48;2.55;;;9.50;99.90;;;;;;5033000;28;20472;-77
2022/09/17 02:17:37;;;;;;;16.45;2.20;;;9.50;99.90;;;;;;5038215;28;20120;-73
2022/09/17 02:20:05;;;;;;;17.17;2.28;;;9.50;99.90;;;;;;5037146;28;20055;-75
2022/09/17 02:22:55;;;;;;;17.77;2.03;;;9.60;99.90;;;;;;5040738;28;20048;-74
2022/09/17 02:25:37;;;;;;;21.20;2.70;;;9.70;99.90;;;;;;5046793;28;20089;-76
2022/09/17 02:28:11;;;;;;;18.35;2.53;;;9.90;99.90;;;;;;5033195;28;20085;-73
2022/09/17 02:30:37;;;;;;;17.13;2.83;;;10.00;99.90;;;;;;5024819;28;20046;-75
2022/09/17 02:33:07;;;;;;;13.70;2.15;;;10.00;99.90;;;;;;5012929;28;20038;-75
2022/09/17 02:35:33;;;;;;;17.98;2.17;;;10.00;99.90;;;;;;5028097;28;20062;-74
2022/09/17 02:37:59;;;;;;;14.75;2.38;;;10.30;99.90;;;;;;5032730;28;20041;-77
2022/09/17 02:40:30;;;;;;;15.35;2.28;;;10.00;99.90;;;;;;5033286;28;20041;-74
2022/09/17 02:43:17;;;;;;;13.95;1.55;;;9.90;99.90;;;;;;5032788;28;20060;-76
2022/09/17 02:46:00;;;;;;;13.30;1.90;;;9.90;99.90;;;;;;5031943;28;20463;-77
2022/09/17 02:48:42;;;;;;;11.85;1.60;;;10.00;99.90;;;;;;5035646;28;20052;-76
2022/09/17 02:51:25;;;;;;;10.05;1.95;;;9.80;99.90;;;;;;5052364;28;20048;-73
2022/09/17 02:54:03;;;;;;;16.27;1.50;;;9.80;99.90;;;;;;5049524;28;20793;-74
2022/09/17 02:56:53;;;;;;;14.10;1.70;;;9.80;99.90;;;;;;5051745;28;20049;-76
2022/09/17 02:59:48;;;;;;;12.68;1.70;;;9.80;99.90;;;;;;5042859;28;20083;-73
2022/09/17 03:02:17;;;;;;;;;;;9.80;99.90;;;;;;5044300;28;20400;-73
2022/09/17 03:04:45;;;;;;;18.85;1.92;;;9.80;99.90;;;;;;5050300;28;20334;-77
2022/09/17 03:07:12;;;;;;;16.75;2.78;;;10.00;99.90;;;;;;5051788;28;20056;-75
2022/09/17 03:09:39;;;;;;;14.80;1.73;;;9.90;99.90;;;;;;5052047;28;20060;-73
2022/09/17 03:12:04;;;;;;;16.23;2.50;;;9.90;99.90;;;;;;5040621;28;20408;-74
2022/09/17 03:14:30;;;;;;;19.30;2.28;;;10.00;99.90;;;;;;5043379;28;20041;-74
2022/09/17 03:16:56;;;;;;;14.68;1.98;;;9.90;99.90;;;;;;5044311;28;20034;-74
2022/09/17 03:19:22;;;;;;;14.18;1.80;;;9.90;99.90;;;;;;5031756;28;20115;-74
2022/09/17 03:21:48;;;;;;;15.93;1.90;;;9.90;99.90;;;;;;5031655;28;20049;-77
2022/09/17 03:24:13;;;;;;;16.45;2.08;;;9.90;99.90;;;;;;5031853;28;20057;-75
2022/09/17 03:26:39;;;;;;;14.18;1.90;;;9.90;99.90;;;;;;5041938;28;20049;-75
2022/09/17 03:29:04;;;;;;;14.77;1.92;;;9.90;99.90;;;;;;5050839;28;20053;-73
2022/09/17 03:31:30;;;;;;;17.85;2.25;;;9.90;99.90;;;;;;5051593;28;20117;-75
2022/09/17 03:33:57;;;;;;;16.33;2.03;;;10.00;99.90;;;;;;5051624;28;20052;-74
2022/09/17 03:36:23;;;;;;;18.63;2.30;;;10.00;99.90;;;;;;5049630;28;20087;-76
2022/09/17 03:38:52;;;;;;;17.40;1.80;;;10.00;99.90;;;;;;5051364;28;20091;-76
2022/09/17 03:41:18;;;;;;;20.85;2.13;;;10.10;99.90;;;;;;5041146;28;20098;-76
2022/09/17 03:43:43;;;;;;;12.48;2.38;;;10.40;99.90;;;;;;5030039;28;20037;-75
2022/09/17 03:46:09;;;;;;;15.25;2.38;;;10.10;99.90;;;;;;5030966;28;20507;-74
2022/09/17 03:48:36;;;;;;;12.90;1.65;;;10.10;99.90;;;;;;5032438;28;20052;-77
2022/09/17 03:51:02;;;;;;;15.15;2.05;;;10.10;99.90;;;;;;5031587;28;20045;-75
2022/09/17 03:53:27;;;;;;;14.13;1.80;;;10.10;99.90;;;;;;5031540;28;20064;-73
2022/09/17 03:55:56;;;;;;;12.13;1.63;;;10.10;99.90;;;;;;5031443;28;20044;-74
2022/09/17 03:58:22;;;;;;;14.30;1.80;;;10.10;99.90;;;;;;5032307;28;20116;-74
2022/09/17 04:00:52;;;;;;;12.63;1.55;;;10.20;99.90;;;;;;5030109;28;20065;-73
2022/09/17 04:03:18;;;;;;;14.20;1.77;;;10.00;99.90;;;;;;5031155;28;20042;-74
2022/09/17 04:05:43;;;;;;;21.90;1.73;;;10.00;99.90;;;;;;5030819;28;20099;-73
2022/09/17 04:08:09;;;;;;;13.02;1.65;;;9.90;99.90;;;;;;5032036;28;20045;-73
2022/09/17 04:10:35;;;;;;;10.05;1.40;;;9.90;99.90;;;;;;5031149;28;20049;-74
2022/09/17 04:13:00;;;;;;;11.98;1.58;;;9.80;99.90;;;;;;5034415;28;20107;-73
2022/09/17 04:15:26;;;;;;;11.73;1.45;;;9.80;99.90;;;;;;5039990;28;20039;-75
2022/09/17 04:17:56;;;;;;;12.85;1.80;;;9.80;99.90;;;;;;5031137;28;20045;-75
2022/09/17 04:20:23;;;;;;;19.33;1.83;;;9.90;99.90;;;;;;5030943;28;20063;-75
2022/09/17 04:22:48;;;;;;;18.00;2.63;;;9.90;99.90;;;;;;5030888;28;20762;-73
2022/09/17 04:25:14;;;;;;;15.23;2.05;;;10.00;99.90;;;;;;5030988;28;20132;-74
2022/09/17 04:27:40;;;;;;;16.92;1.95;;;9.90;99.90;;;;;;5030791;28;20057;-76
2022/09/17 04:30:06;;;;;;;11.35;1.95;;;9.90;99.90;;;;;;5040302;28;20396;-74
2022/09/17 04:32:32;;;;;;;18.85;1.83;;;9.90;99.90;;;;;;5050785;28;20087;-76
2022/09/17 04:34:58;;;;;;;15.43;2.53;;;9.80;99.90;;;;;;5050730;28;20263;-77
2022/09/17 04:37:24;;;;;;;14.98;1.95;;;9.80;99.90;;;;;;5050367;28;20051;-77
2022/09/17 04:39:50;;;;;;;12.55;1.98;;;9.80;99.90;;;;;;5037251;28;20124;-77
2022/09/17 04:42:16;;;;;;;19.38;1.80;;;9.80;99.90;;;;;;5030839;28;20057;-76
2022/09/17 04:44:42;;;;;;;11.52;2.10;;;9.80;99.90;;;;;;5028813;28;20045;-78
2022/09/17 04:47:07;;;;;;;15.90;2.03;;;9.80;99.90;;;;;;5032263;28;20397;-77
2022/09/17 04:49:33;;;;;;;14.93;1.80;;;9.80;99.90;;;;;;5050355;28;20111;-77
2022/09/17 04:51:58;;;;;;;16.40;1.67;;;9.80;99.90;;;;;;5048755;28;20539;-73
2022/09/17 04:54:24;;;;;;;15.45;2.00;;;9.80;99.90;;;;;;5046267;28;20069;-75
2022/09/17 04:56:50;;;;;;;13.70;1.98;;;9.80;99.90;;;;;;5030528;28;20053;-74
2022/09/17 04:59:16;;;;;;;18.48;1.90;;;9.80;99.90;;;;;;5030610;28;20037;-75
2022/09/17 05:01:42;;;;;;;16.88;2.28;;;9.70;99.90;;;;;;5030878;28;20045;-74
2022/09/17 05:04:08;;;;;;;15.10;2.20;;;9.70;99.90;;;;;;5029002;28;20053;-74
2022/09/17 05:06:34;;;;;;;13.43;1.65;;;9.70;99.90;;;;;;5030087;28;20536;-73
2022/09/17 05:09:01;;;;;;;12.77;1.30;;;9.70;99.90;;;;;;5037905;28;20128;-74
2022/09/17 05:11:27;;;;;;;18.13;2.17;;;9.70;99.90;;;;;;5048382;28;20746;-76
2022/09/17 05:13:53;;;;;;;16.15;2.83;;;9.60;99.90;;;;;;5041906;28;20052;-77
2022/09/17 05:16:19;;;;;;;13.27;1.80;;;9.70;99.90;;;;;;5038924;28;20049;-74
2022/09/17 05:18:44;;;;;;;13.88;2.33;;;9.70;99.90;;;;;;5029737;28;20049;-73
2022/09/17 05:21:10;;;;;;;10.90;1.65;;;9.70;99.90;;;;;;5029847;28;20090;-74
2022/09/17 05:23:36;;;;;;;15.30;1.90;;;9.80;99.90;;;;;;5031083;28;20134;-78
2022/09/17 05:26:01;;;;;;;14.48;1.92;;;9.80;99.90;;;;;;5030020;28;20049;-75
2022/09/17 05:28:27;;;;;;;17.17;1.85;;;9.90;99.90;;;;;;5030342;28;20053;-75
2022/09/17 05:30:53;;;;;;;8.95;1.45;;;9.90;99.90;;;;;;5030182;28;20042;-75
2022/09/17 05:33:19;;;;;;;9.95;1.27;;;9.90;99.90;;;;;;5031007;28;20484;-74
2022/09/17 05:35:45;;;;;;;7.72;1.33;;;10.00;99.90;;;;;;5029996;28;20053;-73
2022/09/17 05:38:11;;;;;;;12.82;1.85;;;10.00;99.90;;;;;;5029961;28;20045;-75
2022/09/17 05:40:37;;;;;;;7.88;1.20;;;10.00;99.90;;;;;;5030088;28;20416;-77
2022/09/17 05:43:05;;;;;;;9.15;1.40;;;9.90;99.90;;;;;;5031728;28;20045;-77
2022/09/17 05:45:36;;;;;;;6.63;1.10;;;9.90;99.90;;;;;;5029540;28;20220;-77
2022/09/17 05:48:03;;;;;;;4.65;0.95;;;9.80;99.90;;;;;;5037808;28;20041;-74
2022/09/17 05:50:29;;;;;;;4.40;0.80;;;9.80;99.90;;;;;;5049671;28;20056;-75
2022/09/17 05:52:55;;;;;;;5.50;0.60;;;9.70;99.90;;;;;;5049727;28;20124;-76
2022/09/17 05:55:22;;;;;;;4.03;0.50;;;9.70;99.90;;;;;;5048126;28;20120;-75
2022/09/17 05:57:49;;;;;;;6.82;0.93;;;9.70;99.90;;;;;;5049865;28;20043;-75
2022/09/17 06:00:16;;;;;;;4.80;1.00;;;9.70;99.90;;;;;;5049621;28;20048;-76
2022/09/17 06:02:41;;;;;;;4.10;0.70;;;9.60;99.90;;;;;;5048948;28;20044;-75
2022/09/17 06:05:08;;;;;;;4.20;0.85;;;9.60;99.90;;;;;;5045429;28;20446;-75
2022/09/17 06:07:37;;;;;;;3.85;0.70;;;9.50;99.90;;;;;;5029399;28;20041;-74
2022/09/17 06:10:05;;;;;;;8.02;1.23;;;9.50;99.90;;;;;;5029598;28;20088;-74
2022/09/17 06:12:34;;;;;;;9.95;1.10;;;9.50;99.90;;;;;;5029596;28;20037;-74
2022/09/17 06:14:59;;;;;;;8.25;1.30;;;9.50;99.90;;;;;;5030498;28;20112;-76
2022/09/17 06:17:25;;;;;;;12.93;1.83;;;9.50;99.90;;;;;;5030528;28;20108;-77
2022/09/17 06:19:51;;;;;;;7.47;1.17;;;9.60;99.90;;;;;;5029471;28;20083;-75
2022/09/17 06:22:18;;;;;;;9.60;1.10;;;9.50;99.90;;;;;;5029433;28;20412;-74
2022/09/17 06:24:44;;;;;;;9.40;1.70;;;9.50;99.90;;;;;;5029806;28;20468;-76
2022/09/17 06:27:10;;;;;;;13.32;1.50;;;9.50;99.90;;;;;;5041065;28;20110;-74
2022/09/17 06:29:35;;;;;;;7.10;1.73;;;9.50;99.90;;;;;;5051003;28;20152;-74
2022/09/17 06:32:01;;;;;;;12.32;1.27;;;9.50;99.90;;;;;;5040297;28;20037;-74
2022/09/17 06:34:27;;;;;;;10.45;1.25;;;9.50;99.90;;;;;;5032642;28;20084;-75
2022/09/17 06:36:53;;;;;;;10.10;1.15;;;9.50;99.90;;;;;;5033678;28;20037;-74
2022/09/17 06:39:18;;;;;;;8.48;1.33;;;9.50;99.90;;;;;;5032802;28;20041;-74
2022/09/17 06:41:45;;;;;;;13.63;1.20;;;9.90;99.90;;;;;;5032984;28;20084;-75
2022/09/17 06:44:10;;;;;;;8.18;1.10;;;9.70;99.90;;;;;;5037081;28;20070;-75
2022/09/17 06:46:36;;;;;;;11.20;1.23;;;9.80;99.90;;;;;;5050728;28;20045;-75
2022/09/17 06:49:02;;;;;;;12.50;1.33;;;9.90;99.90;;;;;;5052386;28;20120;-74
2022/09/17 06:51:27;;;;;;;10.65;1.20;;;9.90;99.90;;;;;;5051636;28;20037;-75
2022/09/17 06:53:53;;;;;;;11.63;1.65;;;10.00;99.90;;;;;;5052276;28;20044;-75
2022/09/17 06:56:19;;;;;;;8.55;1.90;;;10.20;99.90;;;;;;5052393;28;20610;-74
2022/09/17 06:58:45;;;;;;;7.80;1.48;;;10.00;99.90;;;;;;5050510;28;20086;-74
2022/09/17 07:01:12;;;;;;;11.27;1.25;;;10.10;99.90;;;;;;5043213;28;20049;-72
2022/09/17 07:03:38;;;;;;;13.10;1.48;;;10.20;99.90;;;;;;5044762;28;20052;-72
2022/09/17 07:06:08;;;;;;;12.98;1.77;;;10.30;99.90;;;;;;5032335;28;20056;-74
2022/09/17 07:08:34;;;;;;;13.10;1.65;;;10.30;99.90;;;;;;5031948;28;20103;-73
2022/09/17 07:11:00;;;;;;;9.07;1.30;;;10.30;99.90;;;;;;5047138;28;20044;-73
2022/09/17 07:13:25;;;;;;;9.40;1.10;;;10.30;99.90;;;;;;5050695;28;20045;-73
2022/09/17 07:15:55;;;;;;;11.02;1.90;;;10.40;99.90;;;;;;5051979;28;20056;-73
2022/09/17 07:18:22;;;;;;;15.32;1.85;;;10.40;99.90;;;;;;5052059;28;20049;-74
2022/09/17 07:20:55;;;;;;;8.50;1.20;;;10.50;99.90;;;;;;5050272;28;20142;-75
2022/09/17 07:23:25;;;;;;;12.48;1.30;;;10.50;99.90;;;;;;5031430;28;20084;-75
2022/09/17 07:26:00;;;;;;;11.35;1.50;;;10.60;99.90;;;;;;5032056;28;20068;-75
2022/09/17 07:28:26;;;;;;;11.07;2.00;;;10.70;99.90;;;;;;5032586;28;20041;-74
2022/09/17 07:30:52;;;;;;;12.88;2.85;;;10.80;99.90;;;;;;5031722;28;20042;-75
2022/09/17 07:33:23;;;;;;;16.27;1.95;;;10.90;99.90;;;;;;5031679;28;20125;-75
2022/09/17 07:36:00;;;;;;;15.98;2.22;;;11.00;99.90;;;;;;5031404;28;20041;-74
2022/09/17 07:38:27;;;;;;;11.80;2.13;;;11.20;99.90;;;;;;5029666;28;20119;-73
2022/09/17 07:41:01;;;;;;;12.52;2.00;;;11.40;99.90;;;;;;5011540;28;20048;-74
2022/09/17 07:43:29;;;;;;;10.85;1.90;;;11.60;99.90;;;;;;5023449;28;20064;-75
2022/09/17 07:45:57;;;;;;;13.63;1.67;;;11.60;99.90;;;;;;5034535;28;20512;-74
2022/09/17 07:48:23;;;;;;;9.90;1.42;;;11.70;99.90;;;;;;5031028;28;20131;-75
2022/09/17 07:50:49;;;;;;;8.80;1.40;;;11.90;99.90;;;;;;5031489;28;20544;-74
2022/09/17 07:53:15;;;;;;;16.85;1.50;;;12.00;99.90;;;;;;5030956;28;20046;-73
2022/09/17 07:55:41;;;;;;;7.85;1.05;;;12.10;99.90;;;;;;5032260;28;20037;-76
2022/09/17 07:58:07;;;;;;;12.75;1.30;;;12.30;99.90;;;;;;5031220;28;20038;-73
2022/09/17 08:00:33;;;;;;;11.07;1.20;;;12.30;99.90;;;;;;5031149;28;20046;-75
2022/09/17 08:02:59;;;;;;;7.68;1.05;;;12.50;99.90;;;;;;5032062;28;20856;-73
2022/09/17 08:05:25;;;;;;;8.15;0.90;;;12.30;99.90;;;;;;5030798;28;20091;-74
2022/09/17 08:07:52;;;;;;;10.75;1.45;;;12.30;99.90;;;;;;5030963;28;20144;-75
2022/09/17 08:10:20;;;;;;;7.25;0.88;;;12.10;99.90;;;;;;5030797;28;20052;-75
2022/09/17 08:12:53;;;;;;;6.57;0.77;;;11.90;99.90;;;;;;5030974;28;20041;-74
2022/09/17 08:15:19;;;;;;;8.27;1.13;;;11.90;99.90;;;;;;5031035;28;20103;-72
2022/09/17 08:17:45;;;;;;;6.75;1.20;;;11.50;99.90;;;;;;5030209;28;20045;-76
2022/09/17 08:20:12;;;;;;;5.97;1.45;;;11.50;99.90;;;;;;5030520;28;20049;-73
2022/09/17 08:22:38;;;;;;;7.55;0.82;;;11.40;99.90;;;;;;5030524;28;20053;-74
2022/09/17 08:25:05;;;;;;;8.20;1.35;;;11.30;99.90;;;;;;5031402;28;20076;-74
2022/09/17 08:27:31;;;;;;;8.45;1.25;;;11.30;99.90;;;;;;5030416;28;20060;-73
2022/09/17 08:29:57;;;;;;;9.55;1.20;;;11.40;99.90;;;;;;5033127;28;20041;-72
2022/09/17 08:32:24;;;;;;;10.70;1.42;;;11.50;99.90;;;;;;5018431;28;20135;-74
2022/09/17 08:34:49;;;;;;;12.52;1.88;;;11.50;99.90;;;;;;5010797;28;20131;-78
2022/09/17 08:37:15;;;;;;;8.07;1.13;;;11.80;99.90;;;;;;5029762;28;20480;-73
2022/09/17 08:39:41;;;;;;;10.10;1.52;;;11.60;99.90;;;;;;5030247;28;20457;-78
2022/09/17 08:42:30;;;;;;;8.75;1.23;;;11.60;99.90;;;;;;5030454;28;20049;-74
2022/09/17 08:44:56;;;;;;;13.38;1.25;;;11.80;99.90;;;;;;5030504;28;20052;-77
2022/09/17 08:47:29;;;;;;;12.68;1.58;;;12.20;99.90;;;;;;5031421;28;20056;-73
2022/09/17 08:50:02;;;;;;;9.77;1.30;;;12.30;99.90;;;;;;5030813;28;20124;-75
2022/09/17 08:52:53;;;;;;;10.68;1.15;;;12.40;99.90;;;;;;5029700;28;20084;-73
2022/09/17 08:55:30;;;;;;;13.57;1.55;;;12.30;99.90;;;;;;5027402;28;20440;-75
2022/09/17 08:58:04;;;;;;;14.50;1.77;;;12.30;99.90;;;;;;5026213;28;20045;-78
2022/09/17 09:00:52;;;;;;;9.75;1.50;;;12.20;99.90;;;;;;5010747;28;20045;-77
2022/09/17 09:03:39;;;;;;;9.50;1.45;;;12.30;99.90;;;;;;5007958;28;20060;-74
2022/09/17 09:06:05;;;;;;;10.45;1.38;;;12.30;99.90;;;;;;5010313;28;20064;-75
2022/09/17 09:08:42;;;;;;;9.32;1.15;;;12.50;99.90;;;;;;5019923;28;20117;-73
2022/09/17 09:11:17;;;;;;;8.32;1.10;;;12.80;99.90;;;;;;5007546;28;20061;-73
2022/09/17 09:13:47;;;;;;;15.18;1.80;;;13.20;99.90;;;;;;5007746;28;20425;-71
2022/09/17 09:16:26;;;;;;;12.13;1.58;;;13.50;99.90;;;;;;5007890;28;20060;-79
2022/09/17 09:18:54;;;;;;;13.27;1.55;;;13.70;99.90;;;;;;5007632;28;20046;-73
2022/09/17 09:21:20;;;;;;;12.02;1.60;;;13.70;99.90;;;;;;5007764;28;20058;-75
2022/09/17 09:23:55;;;;;;;12.13;1.30;;;13.60;99.90;;;;;;5007706;28;20132;-75
2022/09/17 09:26:35;;;;;;;11.75;1.40;;;13.70;99.90;;;;;;5007251;28;20061;-75
2022/09/17 09:29:18;;;;;;;5.80;1.15;;;14.10;99.90;;;;;;5006892;28;20061;-75
2022/09/17 09:31:56;;;;;;;8.52;1.05;;;14.30;99.90;;;;;;4995655;28;20062;-76
2022/09/17 09:34:22;;;;;;;13.00;1.27;;;14.40;99.90;;;;;;5017226;28;20487;-76
2022/09/17 09:36:50;;;;;;;8.75;1.25;;;14.10;99.90;;;;;;5030011;28;20049;-76
2022/09/17 09:39:34;;;;;;;11.13;1.10;;;13.80;99.90;;;;;;5030102;28;20056;-75
2022/09/17 09:42:24;;;;;;;10.15;1.10;;;13.60;99.90;;;;;;5030384;28;20120;-76
2022/09/17 09:44:50;;;;;;;12.18;1.38;;;13.50;99.90;;;;;;5028600;28;20480;-76
2022/09/17 09:47:46;;;;;;;13.73;2.28;;;13.50;99.90;;;;;;5049305;28;20076;-72
2022/09/17 09:50:47;;;;;;;7.25;1.23;;;13.70;99.90;;;;;;5049635;28;20574;-77
2022/09/17 09:53:35;;;;;;;10.75;0.90;;;13.90;99.90;;;;;;5048026;28;20431;-75
2022/09/17 09:56:24;;;;;;;13.18;1.35;;;14.20;99.90;;;;;;5049658;28;20373;-72
2022/09/17 09:58:50;;;;;;;8.73;1.38;;;14.50;99.90;;;;;;5047323;28;20487;-76
2022/09/17 10:01:21;;;;;;;12.02;1.30;;;14.70;99.90;;;;;;5049207;28;20116;-73
2022/09/17 10:03:50;;;;;;;10.45;1.85;;;14.70;99.90;;;;;;5051243;28;20045;-78
2022/09/17 10:06:18;;;;;;;10.45;1.55;;;14.50;99.90;;;;;;5053188;28;20037;-76
2022/09/17 10:08:55;;;;;;;16.05;1.85;;;14.40;99.90;;;;;;5053064;28;20107;-78
2022/09/17 10:11:27;;;;;;;14.50;1.58;;;14.30;99.90;;;;;;5051205;28;20099;-77
2022/09/17 10:14:12;;;;;;;11.88;1.60;;;14.20;99.90;;;;;;5052892;28;20089;-74
2022/09/17 10:16:37;;;;;;;14.10;2.65;;;14.20;99.90;;;;;;5052844;28;20045;-77
2022/09/17 10:19:06;;;;;;;12.75;1.65;;;14.40;99.90;;;;;;5051783;28;20480;-78
2022/09/17 10:21:34;;;;;;;11.00;1.33;;;14.60;99.90;;;;;;5051012;28;20576;-77
2022/09/17 10:24:02;;;;;;;11.98;1.92;;;14.80;99.90;;;;;;5052360;28;20128;-73
2022/09/17 10:26:31;;;;;;;12.55;2.75;;;14.90;99.90;;;;;;5052771;28;20114;-75
2022/09/17 10:29:13;;;;;;;9.73;1.20;;;15.10;99.90;;;;;;5050848;28;20052;-78
2022/09/17 10:31:53;;;;;;;11.10;1.30;;;15.10;99.90;;;;;;5050890;28;20076;-76
2022/09/17 10:34:24;;;;;;;13.85;1.60;;;14.80;99.90;;;;;;5052422;28;20045;-77
2022/09/17 10:36:50;;;;;;;12.95;1.35;;;14.60;99.90;;;;;;5052582;28;20045;-75
2022/09/17 10:39:48;;;;;;;22.48;2.88;;;14.70;99.90;;;;;;5051573;28;20052;-76
2022/09/17 10:42:17;;;;;;;12.43;1.50;;;14.90;99.90;;;;;;4971136;28;20085;-81
2022/09/17 10:44:54;;;;;;;14.68;1.67;;;15.00;99.90;;;;;;4970763;28;20070;-74
2022/09/17 10:47:34;;;;;;;11.75;1.65;;;15.00;99.90;;;;;;4971181;28;20042;-76
2022/09/17 10:50:06;;;;;;;13.13;2.00;;;14.60;99.90;;;;;;4972329;28;20050;-74
2022/09/17 10:52:37;;;;;;;13.27;1.60;;;14.20;99.90;;;;;;4971164;28;20054;-74
2022/09/17 10:55:23;;;;;;;9.80;1.20;;;13.90;99.90;;;;;;4971355;28;20053;-72
2022/09/17 10:57:49;;;;;;;8.15;1.20;;;13.90;99.90;;;;;;4970879;28;20083;-74
2022/09/17 11:00:17;;;;;;;9.75;1.42;;;13.80;99.90;;;;;;4970766;28;20043;-76
2022/09/17 11:03:08;;;;;;;8.60;1.42;;;13.80;99.90;;;;;;4971971;28;20512;-77
2022/09/17 11:05:46;;;;;;;4.45;0.73;;;13.90;99.90;;;;;;4970887;28;20126;-77
2022/09/17 11:08:31;;;;;;;8.75;1.50;;;13.70;99.90;;;;;;4970805;28;20047;-77
2022/09/17 11:11:23;;;;;;;15.32;2.00;;;13.70;99.90;;;;;;4970593;28;20596;-75
2022/09/17 11:14:14;;;;;;;9.70;1.30;;;13.50;99.90;;;;;;4971750;28;20502;-76
2022/09/17 11:17:24;;;;;;;16.92;1.40;;;13.40;99.90;;;;;;4970584;28;20050;-76
2022/09/17 11:19:55;;;;;;;14.63;1.88;;;13.40;99.90;;;;;;5033470;28;20098;-71
2022/09/17 11:22:35;;;;;;;9.23;2.13;;;13.50;99.90;;;;;;5017499;28;20069;-74
2022/09/17 11:25:21;;;;;;;15.13;1.75;;;13.60;99.90;;;;;;5014524;28;20539;-71
2022/09/17 11:28:23;;;;;;;13.57;1.80;;;13.90;99.90;;;;;;5030509;28;20053;-75
2022/09/17 11:31:10;;;;;;;16.67;2.42;;;14.20;99.90;;;;;;5029959;28;20527;-74
2022/09/17 11:33:50;;;;;;;12.15;1.55;;;14.10;99.90;;;;;;5031851;28;20041;-75
2022/09/17 11:36:24;;;;;;;12.95;1.90;;;14.00;99.90;;;;;;5031504;28;20802;-73
2022/09/17 11:38:51;;;;;;;9.45;2.00;;;13.80;99.90;;;;;;5031545;28;20052;-75
2022/09/17 11:41:22;;;;;;;10.15;1.50;;;13.70;99.90;;;;;;5031178;28;20056;-77
2022/09/17 11:44:09;;;;;;;13.18;1.38;;;13.90;99.90;;;;;;5032190;28;20057;-74
2022/09/17 11:46:52;;;;;;;14.20;2.00;;;14.00;99.90;;;;;;5031180;28;20733;-76
2022/09/17 11:49:41;;;;;;;11.60;1.67;;;14.10;99.90;;;;;;5031240;28;20041;-73
2022/09/17 11:52:33;;;;;;;14.82;2.55;;;14.20;99.90;;;;;;5031169;28;20088;-75
2022/09/17 11:55:17;;;;;;;12.90;1.92;;;14.30;99.90;;;;;;5032169;28;20436;-74
2022/09/17 11:57:44;;;;;;;14.73;2.53;;;14.20;99.90;;;;;;5030485;28;20041;-74
2022/09/17 12:00:14;;;;;;;11.02;1.73;;;14.40;99.90;;;;;;5031113;28;20160;-73
2022/09/17 12:03:09;;;;;;;6.43;1.30;;;14.70;99.90;;;;;;5029215;28;20056;-76
2022/09/17 12:05:46;;;;;;;7.28;1.00;;;14.90;99.90;;;;;;5031034;28;20118;-76
2022/09/17 12:08:32;;;;;;;9.63;1.20;;;15.20;99.90;;;;;;5031881;28;20050;-75
2022/09/17 12:11:20;;;;;;;16.23;2.05;;;15.30;99.90;;;;;;5030759;28;20045;-74
2022/09/17 12:13:53;;;;;;;11.23;1.88;;;15.50;99.90;;;;;;5036865;28;20049;-80
2022/09/17 12:16:30;;;;;;;14.75;1.92;;;15.70;99.90;;;;;;5035390;28;20061;-82
2022/09/17 12:19:21;;;;;;;14.93;2.55;;;15.80;99.90;;;;;;5028443;28;20129;-78
2022/09/17 12:21:58;;;;;;;15.02;2.55;;;15.90;99.90;;;;;;5030417;28;20743;-78
2022/09/17 12:24:28;;;;;;;12.65;1.65;;;16.20;99.90;;;;;;5030763;28;20050;-75
2022/09/17 12:27:29;;;;;;;15.43;2.70;;;15.90;99.90;;;;;;5031153;28;20041;-76
2022/09/17 12:30:17;;;;;;;13.20;2.22;;;15.80;99.90;;;;;;5029875;28;20102;-77
2022/09/17 12:33:02;;;;;;;18.60;2.13;;;15.90;99.90;;;;;;5010717;28;20107;-77
2022/09/17 12:35:52;;;;;;;12.30;1.85;;;16.00;99.90;;;;;;5010552;28;20061;-76
2022/09/17 12:38:34;;;;;;;9.80;1.38;;;16.10;99.90;;;;;;5010512;28;20065;-77
2022/09/17 12:41:28;;;;;;;10.07;1.50;;;16.40;99.90;;;;;;5010678;28;20129;-77
2022/09/17 12:44:22;;;;;;;10.70;1.65;;;16.30;99.90;;;;;;5010632;28;20057;-77
2022/09/17 12:47:17;;;;;;;8.48;1.80;;;16.50;99.90;;;;;;5010446;28;20144;-79
2022/09/17 12:50:02;;;;;;;;;;;16.60;99.90;;;;;;5010443;28;20056;-77
2022/09/17 12:52:42;;;;;;;19.05;3.22;;;16.60;99.90;;;;;;5010636;28;20047;-79
2022/09/17 12:55:48;;;;;;;13.60;2.33;;;16.40;99.90;;;;;;5010339;28;20046;-80
2022/09/17 12:58:32;;;;;;;;;;;16.60;99.90;;;;;;5010975;28;20048;-81
2022/09/17 13:01:37;;;;;;;12.45;2.22;;;16.70;99.90;;;;;;5010516;28;19932;-79
2022/09/17 13:04:22;;;;;;;16.92;2.20;;;17.00;99.90;;;;;;5008960;28;20519;-77
2022/09/17 13:07:06;;;;;;;16.70;2.30;;;17.10;99.90;;;;;;5031774;28;20041;-77
2022/09/17 13:10:07;;;;;;;11.43;2.20;;;17.30;99.90;;;;;;5028796;28;20053;-82
2022/09/17 13:12:41;;;;;;;22.63;2.55;;;17.30;99.90;;;;;;5030654;28;20296;-80